createdAt,value
2023-01-11T00:04:15.820Z,72.72
2023-01-11T00:09:18.506Z,72.42
2023-01-11T00:14:21.814Z,72.31
2023-01-11T00:19:24.583Z,72.27
2023-01-11T00:24:27.523Z,71.97
2023-01-11T00:29:30.325Z,71.84
2023-01-11T00:34:33.022Z,72.24
2023-01-11T00:39:35.722Z,72.82
2023-01-11T00:44:57.116Z,72.97
2023-01-11T00:50:00.124Z,70.61
2023-01-11T00:55:03.071Z,68.35
2023-01-11T01:00:06.986Z,68.32
2023-01-11T01:05:10.528Z,67.61
2023-01-11T01:10:16.760Z,66.81
2023-01-11T01:15:20.081Z,65.89
2023-01-11T01:20:24.560Z,66.51
2023-01-11T01:25:27.850Z,67.52
2023-01-11T01:30:31.182Z,68.32
2023-01-11T01:35:33.905Z,69.33
2023-01-11T01:40:44.815Z,69.44
2023-01-11T01:45:50.088Z,69.67
2023-01-11T01:50:57.351Z,70.28
2023-01-11T01:56:03.332Z,70.73
2023-01-11T02:01:25.000Z,71.10
2023-01-11T02:06:27.892Z,71.02
2023-01-11T02:11:31.430Z,71.55
2023-01-11T02:16:34.589Z,71.41
2023-01-11T02:22:14.873Z,71.71
2023-01-11T02:27:31.677Z,72.55
2023-01-11T02:32:49.872Z,70.76
2023-01-11T02:38:11.223Z,70.42
2023-01-11T02:43:34.997Z,70.85
2023-01-11T02:48:49.945Z,71.80
2023-01-11T02:54:02.798Z,73.08
2023-01-11T02:59:10.624Z,73.62
2023-01-11T03:04:22.457Z,74.10
2023-01-11T03:09:34.264Z,74.75
2023-01-11T03:14:42.885Z,73.76
2023-01-11T03:19:54.630Z,73.27
2023-01-11T03:25:08.845Z,74.87
2023-01-11T03:30:19.367Z,75.91
2023-01-11T03:35:31.471Z,76.09
2023-01-11T03:40:40.104Z,76.20
2023-01-11T03:45:54.092Z,76.59
2023-01-11T03:50:59.430Z,77.47
2023-01-11T03:56:05.846Z,74.65
2023-01-11T04:01:09.094Z,74.08
2023-01-11T04:06:12.459Z,73.93
2023-01-11T04:11:15.267Z,74.12
2023-01-11T04:16:18.083Z,74.95
2023-01-11T04:21:20.933Z,75.37
2023-01-11T04:26:23.771Z,75.66
2023-01-11T04:31:26.604Z,75.92
2023-01-11T04:36:31.625Z,75.77
2023-01-11T04:41:52.950Z,75.78
2023-01-11T04:46:55.787Z,75.20
2023-01-11T04:51:58.504Z,74.93
2023-01-11T04:57:01.210Z,74.88
2023-01-11T05:02:03.981Z,75.00
2023-01-11T05:07:09.023Z,75.36
2023-01-11T05:12:11.824Z,75.59
2023-01-11T05:17:15.576Z,75.60
2023-01-11T05:22:18.348Z,75.44
2023-01-11T05:27:21.364Z,75.57
2023-01-11T05:32:24.465Z,75.78
2023-01-11T05:37:27.252Z,75.61
2023-01-11T05:42:29.960Z,75.36
2023-01-11T05:47:32.648Z,75.06
2023-01-11T05:52:35.384Z,74.72
2023-01-11T05:57:41.855Z,74.77
2023-01-11T06:02:44.767Z,74.60
2023-01-11T06:07:47.759Z,74.94
2023-01-11T06:13:13.411Z,75.22
2023-01-11T06:18:16.202Z,75.64
2023-01-11T06:23:19.106Z,76.22
2023-01-11T06:28:22.224Z,76.52
2023-01-11T06:33:26.960Z,76.96
2023-01-11T06:38:29.760Z,76.95
2023-01-11T06:43:32.850Z,76.80
2023-01-11T06:48:36.591Z,77.07
2023-01-11T06:53:41.133Z,76.50
2023-01-11T06:58:46.767Z,76.56
2023-01-11T07:03:49.970Z,76.36
2023-01-11T07:08:52.815Z,76.45
2023-01-11T07:13:55.619Z,76.31
2023-01-11T07:18:58.335Z,76.08
2023-01-11T07:24:02.042Z,75.30
2023-01-11T07:29:04.807Z,74.82
2023-01-11T07:34:07.575Z,74.09
2023-01-11T07:39:10.769Z,73.84
2023-01-11T07:44:13.672Z,73.68
2023-01-11T07:49:16.743Z,72.78
2023-01-11T07:54:19.571Z,71.82
2023-01-11T07:59:23.125Z,70.70
2023-01-11T08:04:25.979Z,72.04
2023-01-11T08:09:28.652Z,70.10
2023-01-11T08:14:40.657Z,67.33
2023-01-11T08:19:44.029Z,66.39
2023-01-11T08:24:47.145Z,66.10
2023-01-11T08:29:49.939Z,65.14
2023-01-11T08:34:52.942Z,63.10
2023-01-11T08:39:57.065Z,61.79
2023-01-11T08:44:59.845Z,62.64
2023-01-11T08:50:02.933Z,63.31
2023-01-11T08:55:08.246Z,60.63
2023-01-11T09:00:12.060Z,61.07
2023-01-11T09:05:16.846Z,58.80
2023-01-11T09:10:21.200Z,61.05
2023-01-11T09:15:25.682Z,60.41
2023-01-11T09:20:28.462Z,58.33
2023-01-11T09:25:31.608Z,57.59
2023-01-11T09:30:34.416Z,58.88
2023-01-11T09:35:38.967Z,58.54
2023-01-11T09:40:57.238Z,56.32
2023-01-11T09:46:08.116Z,55.00
2023-01-11T09:51:16.146Z,56.40
2023-01-11T09:56:26.197Z,56.30
2023-01-11T10:01:45.812Z,55.17
2023-01-11T10:07:14.507Z,55.18
2023-01-11T10:19:11.862Z,53.27
2023-01-11T10:24:25.088Z,51.82
2023-01-11T10:30:03.116Z,51.71
2023-01-11T10:35:51.916Z,51.74
2023-01-11T10:41:12.358Z,52.77
2023-01-11T10:46:21.425Z,53.53
2023-01-11T10:51:32.978Z,53.06
2023-01-11T10:57:09.127Z,54.24
2023-01-11T11:02:30.499Z,53.82
2023-01-11T11:07:42.761Z,52.97
2023-01-11T11:13:12.552Z,53.64
2023-01-11T11:18:15.326Z,55.48
2023-01-11T11:23:22.042Z,56.61
2023-01-11T11:28:32.960Z,57.05
2023-01-11T11:33:37.727Z,58.60
2023-01-11T11:39:00.553Z,59.34
2023-01-11T11:44:15.587Z,60.41
2023-01-11T11:49:18.939Z,61.08
2023-01-11T11:54:27.115Z,61.80
2023-01-11T11:59:33.283Z,62.02
2023-01-11T12:04:48.587Z,57.67
2023-01-11T12:09:57.225Z,60.25
2023-01-11T12:15:15.056Z,62.56
2023-01-11T12:20:23.884Z,59.34
2023-01-11T12:25:28.991Z,60.08
2023-01-11T12:30:41.010Z,62.46
2023-01-11T12:35:49.861Z,59.24
2023-01-11T12:41:20.567Z,57.95
2023-01-11T12:46:36.885Z,62.28
2023-01-11T12:51:46.240Z,59.59
2023-01-11T12:56:54.990Z,59.36
2023-01-11T13:02:16.023Z,62.80
2023-01-11T13:07:40.769Z,60.09
2023-01-11T13:12:52.024Z,61.57
2023-01-11T13:18:11.889Z,63.87
2023-01-11T13:23:51.225Z,63.68
2023-01-11T13:29:05.677Z,60.75
2023-01-11T13:34:23.121Z,59.14
2023-01-11T13:39:37.699Z,63.01
2023-01-11T13:44:47.960Z,61.04
2023-01-11T13:50:05.086Z,58.41
2023-01-11T13:55:25.382Z,62.35
2023-01-11T14:00:46.077Z,62.41
2023-01-11T14:06:28.698Z,60.17
2023-01-11T14:11:51.749Z,59.13
2023-01-11T14:17:16.379Z,60.75
2023-01-11T14:22:39.237Z,63.78
2023-01-11T14:28:05.928Z,61.48
2023-01-11T14:33:55.893Z,59.89
2023-01-11T14:39:10.007Z,60.23
2023-01-11T14:44:50.621Z,64.21
2023-01-11T14:50:14.421Z,61.95
2023-01-11T14:55:22.671Z,60.63
2023-01-11T15:00:25.584Z,59.88
2023-01-11T15:05:31.360Z,63.18
2023-01-11T15:10:34.731Z,59.78
2023-01-11T15:15:56.261Z,61.09
2023-01-11T15:21:05.663Z,62.63
2023-01-11T15:26:09.786Z,59.71
2023-01-11T15:31:49.572Z,63.85
2023-01-11T15:37:11.076Z,62.16
2023-01-11T15:42:16.884Z,60.42
2023-01-11T15:47:35.574Z,60.70
2023-01-11T15:52:53.399Z,63.49
2023-01-11T15:57:56.027Z,60.84
2023-01-11T16:03:37.263Z,59.95
2023-01-11T16:08:58.692Z,60.62
2023-01-11T16:14:30.839Z,59.33
2023-01-11T16:19:39.881Z,63.03
2023-01-11T16:24:49.571Z,62.43
2023-01-11T16:29:53.222Z,59.67
2023-01-11T16:34:56.178Z,61.28
2023-01-11T16:40:11.606Z,63.82
2023-01-11T16:45:22.159Z,61.11
2023-01-11T16:50:25.891Z,60.17
2023-01-11T16:55:40.504Z,59.99
2023-01-11T17:00:43.496Z,64.16
2023-01-11T17:06:09.323Z,62.74
2023-01-11T17:11:39.675Z,61.76
2023-01-11T17:16:48.707Z,59.92
2023-01-11T17:22:16.903Z,60.99
2023-01-11T17:27:29.072Z,64.23
2023-01-11T17:32:39.422Z,62.44
2023-01-11T17:37:46.219Z,61.02
2023-01-11T17:43:09.088Z,61.14
2023-01-11T17:48:14.652Z,61.05
2023-01-11T17:53:22.630Z,61.47
2023-01-11T17:58:26.491Z,60.59
2023-01-11T18:03:29.315Z,60.63
2023-01-11T18:08:32.210Z,60.53
2023-01-11T18:13:35.800Z,60.38
2023-01-11T18:18:42.196Z,60.13
2023-01-11T18:23:44.879Z,60.63
2023-01-11T18:28:48.173Z,61.97
2023-01-11T18:33:52.756Z,62.91
2023-01-11T18:38:55.768Z,62.10
2023-01-11T18:43:58.848Z,61.81
2023-01-11T18:49:01.779Z,60.37
2023-01-11T18:54:05.598Z,59.48
2023-01-11T18:59:08.388Z,64.34
2023-01-11T19:04:11.101Z,62.87
2023-01-11T19:09:13.905Z,60.42
2023-01-11T19:14:16.710Z,60.37
2023-01-11T19:19:19.516Z,60.66
2023-01-11T19:24:22.312Z,60.45
2023-01-11T19:29:25.559Z,61.24
2023-01-11T19:34:28.277Z,61.73
2023-01-11T19:39:31.553Z,62.34
2023-01-11T19:44:38.976Z,62.46
2023-01-11T19:49:43.051Z,63.04
2023-01-11T19:54:46.865Z,62.82
2023-01-11T19:59:50.213Z,61.92
2023-01-11T20:04:53.068Z,61.22
2023-01-11T20:09:55.768Z,60.14
2023-01-11T20:15:01.399Z,59.95
2023-01-11T20:20:06.375Z,60.09
2023-01-11T20:25:09.243Z,59.82
2023-01-11T20:30:12.355Z,64.12
2023-01-11T20:35:15.135Z,63.04
2023-01-11T20:40:18.089Z,61.34
2023-01-11T20:45:20.982Z,60.99
2023-01-11T20:50:23.777Z,61.05
2023-01-11T20:55:27.527Z,61.37
2023-01-11T21:00:33.677Z,61.47
2023-01-11T21:05:39.775Z,60.86
2023-01-11T21:10:42.567Z,61.22
2023-01-11T21:15:45.571Z,61.22
2023-01-11T21:20:49.789Z,61.48
2023-01-11T21:25:52.699Z,61.44
2023-01-11T21:31:01.369Z,61.29
2023-01-11T21:36:10.737Z,61.07
2023-01-11T21:41:17.009Z,61.50
2023-01-11T21:46:19.762Z,61.28
2023-01-11T21:51:22.686Z,62.39
2023-01-11T21:56:26.251Z,62.53
2023-01-11T22:01:29.021Z,62.68
2023-01-11T22:06:31.900Z,62.61
2023-01-11T22:11:34.954Z,62.04
2023-01-11T22:16:38.396Z,61.62
2023-01-11T22:21:41.326Z,62.80
2023-01-11T22:26:44.330Z,63.09
2023-01-11T22:31:55.187Z,62.58
2023-01-11T22:36:58.530Z,62.98
2023-01-11T22:42:01.343Z,63.83
2023-01-11T22:47:04.232Z,63.33
2023-01-11T22:52:07.089Z,63.65
2023-01-11T22:57:09.851Z,64.47
2023-01-11T23:02:13.098Z,63.90
2023-01-11T23:07:15.791Z,64.25
2023-01-11T23:12:37.204Z,64.48
2023-01-11T23:17:39.900Z,64.39
2023-01-11T23:22:42.595Z,64.63
2023-01-11T23:27:45.886Z,65.44
2023-01-11T23:32:48.550Z,64.87
2023-01-11T23:37:54.525Z,65.29
2023-01-11T23:42:59.539Z,64.33
2023-01-11T23:48:02.852Z,65.17
2023-01-11T23:53:05.680Z,65.89
2023-01-11T23:58:11.442Z,65.54
